createdAt,value
2022-11-24T00:02:56.604Z,100084.44
2022-11-24T00:06:12.013Z,100072.56
2022-11-24T00:09:17.319Z,100105.81
2022-11-24T00:12:20.134Z,100069.94
2022-11-24T00:15:22.671Z,100125.31
2022-11-24T00:18:24.692Z,100106.94
2022-11-24T00:21:28.464Z,100133.41
2022-11-24T00:24:32.428Z,100118.53
2022-11-24T00:27:35.391Z,100109.09
2022-11-24T00:30:39.269Z,100117.06
2022-11-24T00:33:41.466Z,100111.00
2022-11-24T00:36:44.223Z,100120.88
2022-11-24T00:39:46.408Z,100121.63
2022-11-24T00:42:48.632Z,100120.69
2022-11-24T00:45:50.909Z,100136.56
2022-11-24T00:48:54.095Z,100149.03
2022-11-24T00:51:56.992Z,100139.63
2022-11-24T00:54:59.365Z,100119.09
2022-11-24T00:58:01.583Z,100120.16
2022-11-24T01:01:25.819Z,100135.94
2022-11-24T01:04:28.432Z,100140.44
2022-11-24T01:07:31.202Z,100142.63
2022-11-24T01:10:33.720Z,100130.25
2022-11-24T01:13:35.907Z,100139.09
2022-11-24T01:16:38.959Z,100121.06
2022-11-24T01:19:41.399Z,100146.50
2022-11-24T01:22:47.159Z,100095.56
2022-11-24T01:25:49.748Z,100122.47
2022-11-24T01:28:56.573Z,100082.19
2022-11-24T01:31:58.636Z,100100.34
2022-11-24T01:35:01.043Z,100120.03
2022-11-24T01:38:03.531Z,100133.34
2022-11-24T01:41:22.739Z,100126.91
2022-11-24T01:44:31.774Z,100096.78
2022-11-24T01:47:43.147Z,100124.00
2022-11-24T01:50:49.818Z,100095.47
2022-11-24T01:54:01.159Z,100110.63
2022-11-24T01:57:13.389Z,100119.53
2022-11-24T02:00:20.474Z,100111.06
2022-11-24T02:03:30.856Z,100141.06
2022-11-24T02:07:25.088Z,100144.59
2022-11-24T02:10:30.007Z,100133.47
2022-11-24T02:17:41.375Z,100126.78
2022-11-24T02:20:45.878Z,100119.41
2022-11-24T02:24:17.022Z,100134.44
2022-11-24T02:27:23.240Z,100102.94
2022-11-24T02:30:25.360Z,100120.97
2022-11-24T02:33:27.848Z,100116.00
2022-11-24T02:36:30.668Z,100136.50
2022-11-24T02:39:32.838Z,100099.69
2022-11-24T02:42:43.319Z,100135.09
2022-11-24T02:45:48.401Z,100153.41
2022-11-24T02:52:18.608Z,100102.13
2022-11-24T03:08:56.198Z,100124.00
2022-11-24T03:17:00.997Z,100140.28
2022-11-24T03:20:28.411Z,100144.56
2022-11-24T03:24:06.253Z,100175.50
2022-11-24T04:26:47.890Z,100202.50
2022-11-24T04:34:57.447Z,100178.06
2022-11-24T04:38:03.120Z,100195.50
2022-11-24T04:41:05.753Z,100174.91
2022-11-24T04:44:07.814Z,100188.34
2022-11-24T04:47:21.059Z,100193.81
2022-11-24T04:50:24.799Z,100203.66
2022-11-24T04:53:30.193Z,100211.19
2022-11-24T04:57:31.030Z,100218.88
2022-11-24T05:00:33.150Z,100159.47
2022-11-24T05:03:36.685Z,100185.31
2022-11-24T05:06:39.087Z,100241.13
2022-11-24T05:10:00.865Z,100230.69
2022-11-24T05:13:13.749Z,100237.13
2022-11-24T05:16:15.994Z,100243.47
2022-11-24T05:19:19.130Z,100230.25
2022-11-24T05:22:21.056Z,100251.91
2022-11-24T05:25:23.436Z,100259.75
2022-11-24T05:28:25.729Z,100239.63
2022-11-24T05:31:28.086Z,100256.75
2022-11-24T05:34:36.593Z,100234.53
2022-11-24T05:41:05.727Z,100239.41
2022-11-24T05:44:07.977Z,100253.28
2022-11-24T05:51:39.618Z,100226.19
2022-11-24T05:54:50.438Z,100208.34
2022-11-24T05:58:00.489Z,100229.72
2022-11-24T06:01:06.370Z,100279.97
2022-11-24T06:04:08.424Z,100276.69
2022-11-24T06:07:12.743Z,100285.38
2022-11-24T06:10:18.513Z,100294.13
2022-11-24T06:13:22.611Z,100292.00
2022-11-24T06:16:24.972Z,100308.53
2022-11-24T06:19:27.050Z,100298.78
2022-11-24T06:22:29.352Z,100322.13
2022-11-24T06:25:31.385Z,100324.47
2022-11-24T06:28:33.455Z,100328.09
2022-11-24T06:31:35.799Z,100319.06
2022-11-24T06:34:38.038Z,100317.31
2022-11-24T06:37:41.975Z,100319.63
2022-11-24T06:40:44.145Z,100313.44
2022-11-24T06:43:53.896Z,100280.34
2022-11-24T06:46:59.859Z,100296.63
2022-11-24T06:50:02.281Z,100338.31
2022-11-24T06:53:04.460Z,100333.16
2022-11-24T06:56:15.344Z,100323.78
2022-11-24T06:59:21.221Z,100313.81
2022-11-24T07:02:24.675Z,100336.94
2022-11-24T07:05:27.475Z,100320.38
2022-11-24T07:08:29.615Z,100336.66
2022-11-24T07:11:31.870Z,100332.88
2022-11-24T07:14:34.098Z,100327.41
2022-11-24T07:17:38.113Z,100349.59
2022-11-24T07:20:40.444Z,100346.69
2022-11-24T07:23:42.604Z,100334.41
2022-11-24T07:26:45.018Z,100331.53
2022-11-24T07:29:47.291Z,100348.75
2022-11-24T07:32:49.376Z,100339.25
2022-11-24T07:35:52.413Z,100351.31
2022-11-24T07:38:54.431Z,100340.03
2022-11-24T07:41:56.479Z,100343.34
2022-11-24T07:44:58.463Z,100342.06
2022-11-24T07:48:00.480Z,100356.03
2022-11-24T07:51:04.696Z,100368.78
2022-11-24T07:54:07.741Z,100368.44
2022-11-24T07:57:09.965Z,100376.53
2022-11-24T08:00:13.058Z,100373.59
2022-11-24T08:03:15.917Z,100377.59
2022-11-24T08:06:28.507Z,100366.72
2022-11-24T08:09:31.058Z,100381.78
2022-11-24T08:12:34.402Z,100391.81
2022-11-24T08:15:37.675Z,100375.41
2022-11-24T08:18:39.828Z,100377.44
2022-11-24T08:21:41.933Z,100386.00
2022-11-24T08:24:48.352Z,100364.44
2022-11-24T08:27:50.395Z,100397.84
2022-11-24T08:30:52.695Z,100383.28
2022-11-24T08:33:56.277Z,100386.75
2022-11-24T08:37:00.630Z,100396.72
2022-11-24T08:40:02.661Z,100407.06
2022-11-24T08:43:04.807Z,100396.72
2022-11-24T08:46:10.450Z,100396.00
2022-11-24T08:49:14.801Z,100380.78
2022-11-24T08:52:17.584Z,100392.44
2022-11-24T08:55:20.005Z,100381.78
2022-11-24T08:58:22.315Z,100390.94
2022-11-24T09:01:26.767Z,100397.19
2022-11-24T09:04:29.076Z,100392.59
2022-11-24T09:07:31.168Z,100388.03
2022-11-24T09:10:33.476Z,100387.75
2022-11-24T09:13:36.526Z,100401.69
2022-11-24T09:16:38.736Z,100398.47
2022-11-24T09:19:40.754Z,100387.59
2022-11-24T09:22:43.582Z,100377.13
2022-11-24T09:25:45.701Z,100406.56
2022-11-24T09:28:48.513Z,100395.66
2022-11-24T09:31:51.018Z,100394.81
2022-11-24T09:34:52.960Z,100390.75
2022-11-24T09:37:55.035Z,100400.41
2022-11-24T09:41:26.089Z,100408.78
2022-11-24T09:44:49.614Z,100420.56
2022-11-24T09:47:59.581Z,100394.25
2022-11-24T09:51:05.319Z,100418.28
2022-11-24T09:54:21.852Z,100387.59
2022-11-24T09:57:27.063Z,100409.31
2022-11-24T10:00:30.386Z,100407.66
2022-11-24T10:03:42.113Z,100387.59
2022-11-24T10:07:19.305Z,100405.53
2022-11-24T10:10:29.366Z,100392.38
2022-11-24T10:13:31.268Z,100409.50
2022-11-24T10:16:48.231Z,100415.16
2022-11-24T10:19:58.160Z,100418.06
2022-11-24T10:23:18.854Z,100424.22
2022-11-24T10:26:37.082Z,100427.94
2022-11-24T10:29:42.548Z,100410.09
2022-11-24T10:32:48.342Z,100409.72
2022-11-24T10:35:53.773Z,100425.72
2022-11-24T10:39:28.965Z,100427.50
2022-11-24T10:42:35.474Z,100420.03
2022-11-24T10:45:40.231Z,100420.69
2022-11-24T10:48:49.905Z,100412.03
2022-11-24T10:52:15.317Z,100427.22
2022-11-24T10:55:17.497Z,100418.00
2022-11-24T10:58:25.063Z,100434.84
2022-11-24T11:01:37.552Z,100425.91
2022-11-24T11:04:39.687Z,100414.19
2022-11-24T11:07:41.788Z,100401.00
2022-11-24T11:10:45.527Z,100407.22
2022-11-24T11:13:56.847Z,100373.91
2022-11-24T11:17:03.011Z,100401.81
2022-11-24T11:20:32.181Z,100406.19
2022-11-24T11:23:36.118Z,100403.19
2022-11-24T11:26:39.462Z,100402.72
2022-11-24T11:36:27.397Z,100380.91
2022-11-24T11:39:35.843Z,100389.03
2022-11-24T11:43:05.989Z,100405.34
2022-11-24T11:46:08.125Z,100388.06
2022-11-24T11:49:13.759Z,100412.88
2022-11-24T11:52:43.789Z,100410.59
2022-11-24T11:56:14.462Z,100424.63
2022-11-24T11:59:19.095Z,100421.47
2022-11-24T12:02:56.443Z,100424.97
2022-11-24T12:06:16.697Z,100422.41
2022-11-24T12:09:27.833Z,100427.66
2022-11-24T12:13:06.721Z,100436.69
2022-11-24T12:16:30.192Z,100413.50
2022-11-24T12:19:46.895Z,100400.69
2022-11-24T12:23:18.155Z,100420.31
2022-11-24T12:26:57.818Z,100434.06
2022-11-24T12:30:13.557Z,100429.06
2022-11-24T12:33:31.296Z,100402.75
2022-11-24T12:36:49.915Z,100425.25
2022-11-24T12:40:31.434Z,100422.84
2022-11-24T12:43:39.805Z,100442.44
2022-11-24T12:47:17.983Z,100428.16
2022-11-24T12:50:24.610Z,100404.66
2022-11-24T12:53:34.093Z,100433.28
2022-11-24T12:57:00.169Z,100399.31
2022-11-24T13:00:07.286Z,100398.41
2022-11-24T13:03:30.358Z,100403.88
2022-11-24T13:06:47.468Z,100436.63
2022-11-24T13:10:54.683Z,100420.91
2022-11-24T13:13:59.835Z,100411.44
2022-11-24T13:17:36.330Z,100422.78
2022-11-24T13:20:41.767Z,100404.06
2022-11-24T13:23:44.664Z,100416.41
2022-11-24T13:26:52.268Z,100397.59
2022-11-24T13:29:55.485Z,100403.06
2022-11-24T13:33:27.317Z,100427.50
2022-11-24T13:36:34.644Z,100431.66
2022-11-24T13:39:53.228Z,100431.22
2022-11-24T13:42:58.479Z,100436.97
2022-11-24T13:46:01.851Z,100421.66
2022-11-24T13:49:14.491Z,100439.16
2022-11-24T13:52:36.843Z,100450.03
2022-11-24T13:55:41.158Z,100438.28
2022-11-24T13:58:56.722Z,100433.06
2022-11-24T14:01:59.187Z,100423.69
2022-11-24T14:05:01.895Z,100432.94
2022-11-24T14:08:07.275Z,100415.47
2022-11-24T14:11:16.934Z,100429.50
2022-11-24T14:14:21.245Z,100441.88
2022-11-24T14:17:29.884Z,100432.00
2022-11-24T14:20:33.258Z,100434.16
2022-11-24T14:23:42.309Z,100429.25
2022-11-24T14:26:47.132Z,100449.81
2022-11-24T14:30:15.529Z,100453.16
2022-11-24T14:33:20.331Z,100455.53
2022-11-24T14:36:22.356Z,100459.41
2022-11-24T14:39:26.731Z,100451.25
2022-11-24T14:42:28.778Z,100450.16
2022-11-24T14:45:37.771Z,100470.47
2022-11-24T14:48:50.016Z,100474.47
2022-11-24T14:52:04.194Z,100456.63
2022-11-24T14:55:22.454Z,100456.63
2022-11-24T14:58:37.695Z,100480.25
2022-11-24T15:01:42.875Z,100471.56
2022-11-24T15:05:03.590Z,100497.59
2022-11-24T15:08:06.309Z,100503.59
2022-11-24T15:11:08.611Z,100493.88
2022-11-24T15:14:46.173Z,100506.13
2022-11-24T15:17:52.508Z,100513.75
2022-11-24T15:20:55.116Z,100510.72
2022-11-24T15:24:17.826Z,100518.63
2022-11-24T15:27:19.899Z,100523.63
2022-11-24T15:30:21.895Z,100513.25
2022-11-24T15:33:25.004Z,100520.00
2022-11-24T15:36:27.868Z,100540.09
2022-11-24T15:39:29.949Z,100555.22
2022-11-24T15:42:32.000Z,100552.63
2022-11-24T15:45:34.825Z,100550.75
2022-11-24T15:48:38.784Z,100563.91
2022-11-24T15:51:46.081Z,100548.63
2022-11-24T15:54:54.194Z,100559.72
2022-11-24T15:57:56.388Z,100570.53
2022-11-24T16:00:58.679Z,100572.16
2022-11-24T16:04:01.884Z,100553.47
2022-11-24T16:07:07.004Z,100570.06
2022-11-24T16:10:24.007Z,100570.25
2022-11-24T16:13:26.142Z,100565.09
2022-11-24T16:16:28.284Z,100547.69
2022-11-24T16:19:37.343Z,100571.03
2022-11-24T16:22:42.692Z,100561.25
2022-11-24T16:25:44.737Z,100560.25
2022-11-24T16:28:46.839Z,100551.44
2022-11-24T16:31:52.731Z,100537.06
2022-11-24T16:34:54.889Z,100553.03
2022-11-24T16:37:57.325Z,100565.28
2022-11-24T16:41:02.937Z,100583.84
2022-11-24T16:44:05.121Z,100564.22
2022-11-24T16:47:11.949Z,100592.91
2022-11-24T16:50:14.323Z,100595.72
2022-11-24T16:53:16.495Z,100601.69
2022-11-24T16:56:18.611Z,100595.28
2022-11-24T16:59:20.665Z,100603.81
2022-11-24T17:02:23.000Z,100595.44
2022-11-24T17:05:25.810Z,100603.53
2022-11-24T17:08:34.035Z,100612.50
2022-11-24T17:11:36.426Z,100616.03
2022-11-24T17:14:38.577Z,100613.16
2022-11-24T17:18:01.312Z,100611.84
2022-11-24T17:21:09.683Z,100607.28
2022-11-24T17:24:17.631Z,100609.97
2022-11-24T17:27:19.979Z,100625.63
2022-11-24T17:30:22.384Z,100627.75
2022-11-24T17:33:24.619Z,100635.91
2022-11-24T17:36:27.583Z,100628.69
2022-11-24T17:39:29.943Z,100621.94
2022-11-24T17:42:31.944Z,100638.25
2022-11-24T17:45:34.139Z,100631.16
2022-11-24T17:48:36.883Z,100636.84
2022-11-24T17:51:39.009Z,100645.06
2022-11-24T17:54:56.566Z,100643.47
2022-11-24T17:57:59.410Z,100641.06
2022-11-24T18:01:01.934Z,100649.91
2022-11-24T18:04:04.406Z,100643.22
2022-11-24T18:07:06.489Z,100633.94
2022-11-24T18:10:08.957Z,100636.38
2022-11-24T18:13:27.434Z,100648.41
2022-11-24T18:16:35.405Z,100658.84
2022-11-24T18:19:37.703Z,100648.28
2022-11-24T18:23:04.429Z,100634.50
2022-11-24T18:26:05.348Z,100657.34
2022-11-24T18:29:08.139Z,100646.44
2022-11-24T18:32:10.362Z,100640.34
2022-11-24T18:35:12.520Z,100669.69
2022-11-24T18:38:14.653Z,100651.31
2022-11-24T18:41:18.154Z,100674.38
2022-11-24T18:44:20.751Z,100676.69
2022-11-24T18:47:25.683Z,100673.44
2022-11-24T18:50:27.781Z,100659.78
2022-11-24T18:53:29.942Z,100666.28
2022-11-24T18:56:34.542Z,100685.59
2022-11-24T18:59:37.297Z,100672.97
2022-11-24T19:02:39.904Z,100667.78
2022-11-24T19:05:43.371Z,100676.44
2022-11-24T19:08:45.897Z,100676.06
2022-11-24T19:11:48.059Z,100682.97
2022-11-24T19:14:50.310Z,100655.38
2022-11-24T19:17:52.327Z,100660.03
2022-11-24T19:20:58.040Z,100670.28
2022-11-24T19:24:04.975Z,100672.81
2022-11-24T19:27:10.996Z,100676.84
2022-11-24T19:30:13.284Z,100678.50
2022-11-24T19:33:15.764Z,100689.31
2022-11-24T19:36:20.573Z,100694.16
2022-11-24T19:39:23.293Z,100690.50
2022-11-24T19:42:27.102Z,100689.31
2022-11-24T19:45:29.506Z,100694.44
2022-11-24T19:53:03.555Z,100710.22
2022-11-24T19:56:14.680Z,100643.78
2022-11-24T19:59:20.713Z,100614.44
2022-11-24T20:02:31.990Z,100625.84
2022-11-24T20:05:34.342Z,100683.16
2022-11-24T20:08:38.182Z,100689.19
2022-11-24T20:11:41.210Z,100711.59
2022-11-24T20:14:44.211Z,100672.59
2022-11-24T20:17:46.770Z,100683.25
2022-11-24T20:20:49.076Z,100699.16
2022-11-24T20:23:55.486Z,100717.72
2022-11-24T20:27:00.823Z,100715.13
2022-11-24T20:30:03.425Z,100686.75
2022-11-24T20:33:09.726Z,100704.75
2022-11-24T20:36:14.184Z,100712.34
2022-11-24T20:39:36.803Z,100734.19
2022-11-24T20:42:41.412Z,100711.03
2022-11-24T20:45:43.575Z,100733.03
2022-11-24T20:48:46.693Z,100711.88
2022-11-24T20:51:49.042Z,100730.53
2022-11-24T20:54:51.154Z,100708.22
2022-11-24T20:57:53.229Z,100742.06
2022-11-24T21:00:55.582Z,100714.53
2022-11-24T21:03:59.828Z,100748.63
2022-11-24T21:07:02.111Z,100722.94
2022-11-24T21:10:04.687Z,100734.59
2022-11-24T21:13:07.115Z,100730.25
2022-11-24T21:16:19.953Z,100750.13
2022-11-24T21:19:24.179Z,100747.28
2022-11-24T21:22:27.267Z,100745.97
2022-11-24T21:25:30.868Z,100746.66
2022-11-24T21:28:33.878Z,100745.63
2022-11-24T21:31:39.735Z,100737.09
2022-11-24T21:34:42.276Z,100737.38
2022-11-24T21:37:44.571Z,100729.03
2022-11-24T21:40:50.297Z,100745.00
2022-11-24T21:43:55.611Z,100731.81
2022-11-24T21:47:01.479Z,100752.56
2022-11-24T21:50:09.187Z,100741.94
2022-11-24T21:53:11.810Z,100739.75
2022-11-24T21:56:18.175Z,100758.34
2022-11-24T21:59:22.609Z,100758.13
2022-11-24T22:02:26.454Z,100728.50
2022-11-24T22:05:44.112Z,100758.66
2022-11-24T22:08:49.095Z,100763.38
2022-11-24T22:11:54.138Z,100755.16
2022-11-24T22:14:56.568Z,100747.16
2022-11-24T22:17:58.679Z,100773.19
2022-11-24T22:21:03.026Z,100770.00
2022-11-24T22:24:05.385Z,100775.72
2022-11-24T22:27:07.572Z,100755.03
2022-11-24T22:30:10.781Z,100763.47
2022-11-24T22:33:14.034Z,100751.69
2022-11-24T22:36:18.804Z,100753.19
2022-11-24T22:39:20.803Z,100744.75
2022-11-24T22:42:23.002Z,100765.63
2022-11-24T22:45:25.094Z,100771.69
2022-11-24T22:48:29.114Z,100756.72
2022-11-24T22:51:34.203Z,100761.91
2022-11-24T22:54:36.701Z,100755.38
2022-11-24T22:57:39.063Z,100749.31
2022-11-24T23:00:54.287Z,100769.50
2022-11-24T23:04:00.996Z,100753.56
2022-11-24T23:07:03.821Z,100769.22
2022-11-24T23:10:06.869Z,100757.59
2022-11-24T23:13:10.848Z,100767.53
2022-11-24T23:16:15.691Z,100759.13
2022-11-24T23:19:18.832Z,100749.03
2022-11-24T23:22:21.220Z,100768.06
2022-11-24T23:25:24.319Z,100755.94
2022-11-24T23:28:34.712Z,100760.63
2022-11-24T23:31:40.073Z,100777.09
2022-11-24T23:34:43.035Z,100777.63
2022-11-24T23:38:06.976Z,100760.47
2022-11-24T23:41:12.819Z,100787.06
2022-11-24T23:44:15.619Z,100779.47
2022-11-24T23:47:18.974Z,100767.88
2022-11-24T23:50:23.319Z,100794.84
2022-11-24T23:53:28.805Z,100802.22
2022-11-24T23:56:33.358Z,100785.56
2022-11-24T23:59:35.732Z,100795.88
